sensor_id;sensor_type;location;lat;lon;timestamp;temperature;humidity
55213;DHT22;41083;52.932;6.674;2022-07-18T00:02:08;15.50;99.90
55213;DHT22;41083;52.932;6.674;2022-07-18T00:04:34;15.50;99.90
55213;DHT22;41083;52.932;6.674;2022-07-18T00:06:59;15.40;99.90
55213;DHT22;41083;52.932;6.674;2022-07-18T00:09:25;15.40;99.90
55213;DHT22;41083;52.932;6.674;2022-07-18T00:11:51;15.30;99.90
55213;DHT22;41083;52.932;6.674;2022-07-18T00:14:19;15.30;99.90
55213;DHT22;41083;52.932;6.674;2022-07-18T00:16:45;15.30;99.90
55213;DHT22;41083;52.932;6.674;2022-07-18T00:19:10;15.30;99.90
55213;DHT22;41083;52.932;6.674;2022-07-18T00:21:36;15.20;99.90
55213;DHT22;41083;52.932;6.674;2022-07-18T00:24:02;15.20;99.90
55213;DHT22;41083;52.932;6.674;2022-07-18T00:26:27;15.20;99.90
55213;DHT22;41083;52.932;6.674;2022-07-18T00:28:53;15.20;99.90
55213;DHT22;41083;52.932;6.674;2022-07-18T00:31:19;15.30;99.90
55213;DHT22;41083;52.932;6.674;2022-07-18T00:33:44;15.30;99.90
55213;DHT22;41083;52.932;6.674;2022-07-18T00:36:10;15.30;99.90
55213;DHT22;41083;52.932;6.674;2022-07-18T00:38:36;15.20;99.90
55213;DHT22;41083;52.932;6.674;2022-07-18T00:41:02;15.20;99.90
55213;DHT22;41083;52.932;6.674;2022-07-18T00:43:27;15.20;99.90
55213;DHT22;41083;52.932;6.674;2022-07-18T00:45:53;15.30;99.90
55213;DHT22;41083;52.932;6.674;2022-07-18T00:48:20;15.30;99.90
55213;DHT22;41083;52.932;6.674;2022-07-18T00:50:46;15.30;99.90
55213;DHT22;41083;52.932;6.674;2022-07-18T00:53:12;15.30;99.90
55213;DHT22;41083;52.932;6.674;2022-07-18T00:55:43;15.30;99.90
55213;DHT22;41083;52.932;6.674;2022-07-18T00:58:10;15.20;99.90
55213;DHT22;41083;52.932;6.674;2022-07-18T01:00:37;15.20;99.90
55213;DHT22;41083;52.932;6.674;2022-07-18T01:03:21;15.20;99.90
55213;DHT22;41083;52.932;6.674;2022-07-18T01:05:47;15.20;99.90
55213;DHT22;41083;52.932;6.674;2022-07-18T01:08:13;15.10;99.90
55213;DHT22;41083;52.932;6.674;2022-07-18T01:10:39;15.10;99.90
55213;DHT22;41083;52.932;6.674;2022-07-18T01:13:04;15.10;99.90
55213;DHT22;41083;52.932;6.674;2022-07-18T01:15:30;15.10;99.90
55213;DHT22;41083;52.932;6.674;2022-07-18T01:17:56;15.10;99.90
55213;DHT22;41083;52.932;6.674;2022-07-18T01:20:21;15.10;99.90
55213;DHT22;41083;52.932;6.674;2022-07-18T01:22:47;15.10;99.90
55213;DHT22;41083;52.932;6.674;2022-07-18T01:25:13;15.00;99.90
55213;DHT22;41083;52.932;6.674;2022-07-18T01:27:42;15.10;99.90
55213;DHT22;41083;52.932;6.674;2022-07-18T01:30:08;14.90;99.90
55213;DHT22;41083;52.932;6.674;2022-07-18T01:32:34;14.90;99.90
55213;DHT22;41083;52.932;6.674;2022-07-18T01:34:59;14.90;99.90
55213;DHT22;41083;52.932;6.674;2022-07-18T01:37:25;14.90;99.90
55213;DHT22;41083;52.932;6.674;2022-07-18T01:39:51;14.90;99.90
55213;DHT22;41083;52.932;6.674;2022-07-18T01:42:16;14.80;99.90
55213;DHT22;41083;52.932;6.674;2022-07-18T01:44:43;14.90;99.90
55213;DHT22;41083;52.932;6.674;2022-07-18T01:47:10;14.90;99.90
55213;DHT22;41083;52.932;6.674;2022-07-18T01:49:36;14.80;99.90
55213;DHT22;41083;52.932;6.674;2022-07-18T01:52:03;14.80;99.90
55213;DHT22;41083;52.932;6.674;2022-07-18T01:54:31;14.80;99.90
55213;DHT22;41083;52.932;6.674;2022-07-18T01:56:59;14.70;99.90
55213;DHT22;41083;52.932;6.674;2022-07-18T01:59:25;14.70;99.90
55213;DHT22;41083;52.932;6.674;2022-07-18T02:01:51;14.70;99.90
55213;DHT22;41083;52.932;6.674;2022-07-18T02:04:18;14.70;99.90
55213;DHT22;41083;52.932;6.674;2022-07-18T02:06:44;14.70;99.90
55213;DHT22;41083;52.932;6.674;2022-07-18T02:09:10;14.70;99.90
55213;DHT22;41083;52.932;6.674;2022-07-18T02:11:36;14.70;99.90
55213;DHT22;41083;52.932;6.674;2022-07-18T02:14:03;14.60;99.90
55213;DHT22;41083;52.932;6.674;2022-07-18T02:16:29;14.60;99.90
55213;DHT22;41083;52.932;6.674;2022-07-18T02:18:57;14.60;99.90
55213;DHT22;41083;52.932;6.674;2022-07-18T02:21:23;14.60;99.90
55213;DHT22;41083;52.932;6.674;2022-07-18T02:23:49;14.60;99.90
55213;DHT22;41083;52.932;6.674;2022-07-18T02:26:17;14.50;99.90
55213;DHT22;41083;52.932;6.674;2022-07-18T02:28:42;14.50;99.90
55213;DHT22;41083;52.932;6.674;2022-07-18T02:31:08;14.50;99.90
55213;DHT22;41083;52.932;6.674;2022-07-18T02:33:34;14.50;99.90
55213;DHT22;41083;52.932;6.674;2022-07-18T02:35:59;14.40;99.90
55213;DHT22;41083;52.932;6.674;2022-07-18T02:38:25;14.40;99.90
55213;DHT22;41083;52.932;6.674;2022-07-18T02:40:50;14.40;99.90
55213;DHT22;41083;52.932;6.674;2022-07-18T02:43:16;14.40;99.90
55213;DHT22;41083;52.932;6.674;2022-07-18T02:45:42;14.30;99.90
55213;DHT22;41083;52.932;6.674;2022-07-18T02:48:07;14.30;99.90
55213;DHT22;41083;52.932;6.674;2022-07-18T02:50:34;14.40;99.90
55213;DHT22;41083;52.932;6.674;2022-07-18T02:52:59;14.30;99.90
55213;DHT22;41083;52.932;6.674;2022-07-18T02:55:25;14.30;99.90
55213;DHT22;41083;52.932;6.674;2022-07-18T02:57:51;14.30;99.90
55213;DHT22;41083;52.932;6.674;2022-07-18T03:00:17;14.30;99.90
55213;DHT22;41083;52.932;6.674;2022-07-18T03:02:44;14.30;99.90
55213;DHT22;41083;52.932;6.674;2022-07-18T03:05:10;14.30;99.90
55213;DHT22;41083;52.932;6.674;2022-07-18T03:07:36;14.30;99.90
55213;DHT22;41083;52.932;6.674;2022-07-18T03:10:02;14.30;99.90
55213;DHT22;41083;52.932;6.674;2022-07-18T03:12:28;14.20;99.90
55213;DHT22;41083;52.932;6.674;2022-07-18T03:14:54;14.20;99.90
55213;DHT22;41083;52.932;6.674;2022-07-18T03:17:19;14.20;99.90
55213;DHT22;41083;52.932;6.674;2022-07-18T03:19:45;14.20;99.90
55213;DHT22;41083;52.932;6.674;2022-07-18T03:22:11;14.20;99.90
55213;DHT22;41083;52.932;6.674;2022-07-18T03:24:36;14.20;99.90
55213;DHT22;41083;52.932;6.674;2022-07-18T03:27:02;14.20;99.90
55213;DHT22;41083;52.932;6.674;2022-07-18T03:29:27;14.20;99.90
55213;DHT22;41083;52.932;6.674;2022-07-18T03:31:53;14.20;99.90
55213;DHT22;41083;52.932;6.674;2022-07-18T03:34:19;14.30;99.90
55213;DHT22;41083;52.932;6.674;2022-07-18T03:36:44;14.30;99.90
55213;DHT22;41083;52.932;6.674;2022-07-18T03:39:10;14.30;99.90
55213;DHT22;41083;52.932;6.674;2022-07-18T03:41:37;14.30;99.90
55213;DHT22;41083;52.932;6.674;2022-07-18T03:44:03;14.30;99.90
55213;DHT22;41083;52.932;6.674;2022-07-18T03:46:29;14.30;99.90
55213;DHT22;41083;52.932;6.674;2022-07-18T03:48:55;14.20;99.90
55213;DHT22;41083;52.932;6.674;2022-07-18T03:51:21;14.30;99.90
55213;DHT22;41083;52.932;6.674;2022-07-18T03:53:47;14.20;99.90
55213;DHT22;41083;52.932;6.674;2022-07-18T03:56:12;14.30;99.90
55213;DHT22;41083;52.932;6.674;2022-07-18T03:58:38;14.20;99.90
55213;DHT22;41083;52.932;6.674;2022-07-18T04:01:04;14.30;99.90
55213;DHT22;41083;52.932;6.674;2022-07-18T04:03:29;14.30;99.90
55213;DHT22;41083;52.932;6.674;2022-07-18T04:05:55;14.30;99.90
55213;DHT22;41083;52.932;6.674;2022-07-18T04:08:20;14.30;99.90
55213;DHT22;41083;52.932;6.674;2022-07-18T04:10:46;14.30;99.90
55213;DHT22;41083;52.932;6.674;2022-07-18T04:13:12;14.30;99.90
55213;DHT22;41083;52.932;6.674;2022-07-18T04:15:38;14.30;99.90
55213;DHT22;41083;52.932;6.674;2022-07-18T04:18:05;14.30;99.90
55213;DHT22;41083;52.932;6.674;2022-07-18T04:20:32;14.30;99.90
55213;DHT22;41083;52.932;6.674;2022-07-18T04:23:00;14.30;99.90
55213;DHT22;41083;52.932;6.674;2022-07-18T04:25:29;14.40;99.90
55213;DHT22;41083;52.932;6.674;2022-07-18T04:27:55;14.40;99.90
55213;DHT22;41083;52.932;6.674;2022-07-18T04:30:24;14.40;99.90
55213;DHT22;41083;52.932;6.674;2022-07-18T04:32:50;14.40;99.90
55213;DHT22;41083;52.932;6.674;2022-07-18T04:35:16;14.50;99.90
55213;DHT22;41083;52.932;6.674;2022-07-18T04:37:42;14.50;99.90
55213;DHT22;41083;52.932;6.674;2022-07-18T04:40:09;14.60;99.90
55213;DHT22;41083;52.932;6.674;2022-07-18T04:42:35;14.60;99.90
55213;DHT22;41083;52.932;6.674;2022-07-18T04:45:01;14.70;99.90
55213;DHT22;41083;52.932;6.674;2022-07-18T04:47:28;14.70;99.90
55213;DHT22;41083;52.932;6.674;2022-07-18T04:49:54;14.80;99.90
55213;DHT22;41083;52.932;6.674;2022-07-18T04:52:20;14.80;99.90
55213;DHT22;41083;52.932;6.674;2022-07-18T04:54:46;14.90;99.90
55213;DHT22;41083;52.932;6.674;2022-07-18T04:57:12;14.90;99.90
55213;DHT22;41083;52.932;6.674;2022-07-18T04:59:40;15.00;99.90
55213;DHT22;41083;52.932;6.674;2022-07-18T05:02:07;15.00;99.90
55213;DHT22;41083;52.932;6.674;2022-07-18T05:04:32;14.90;99.90
55213;DHT22;41083;52.932;6.674;2022-07-18T05:06:58;15.10;99.90
55213;DHT22;41083;52.932;6.674;2022-07-18T05:09:23;15.10;99.90
55213;DHT22;41083;52.932;6.674;2022-07-18T05:11:49;15.20;99.90
55213;DHT22;41083;52.932;6.674;2022-07-18T05:14:14;15.20;99.90
55213;DHT22;41083;52.932;6.674;2022-07-18T05:16:40;15.30;99.90
55213;DHT22;41083;52.932;6.674;2022-07-18T05:19:06;15.30;99.90
55213;DHT22;41083;52.932;6.674;2022-07-18T05:21:31;15.30;99.90
55213;DHT22;41083;52.932;6.674;2022-07-18T05:23:57;15.40;99.90
55213;DHT22;41083;52.932;6.674;2022-07-18T05:26:22;15.40;99.90
55213;DHT22;41083;52.932;6.674;2022-07-18T05:28:48;15.50;99.90
55213;DHT22;41083;52.932;6.674;2022-07-18T05:31:13;15.50;99.90
55213;DHT22;41083;52.932;6.674;2022-07-18T05:33:39;15.60;99.90
55213;DHT22;41083;52.932;6.674;2022-07-18T05:36:05;15.60;99.90
55213;DHT22;41083;52.932;6.674;2022-07-18T05:38:31;15.60;99.90
55213;DHT22;41083;52.932;6.674;2022-07-18T05:40:56;15.70;99.90
55213;DHT22;41083;52.932;6.674;2022-07-18T05:43:22;15.70;99.90
55213;DHT22;41083;52.932;6.674;2022-07-18T05:45:48;15.90;99.90
55213;DHT22;41083;52.932;6.674;2022-07-18T05:48:13;15.80;99.90
55213;DHT22;41083;52.932;6.674;2022-07-18T05:50:39;15.90;99.90
55213;DHT22;41083;52.932;6.674;2022-07-18T05:53:04;16.00;99.90
55213;DHT22;41083;52.932;6.674;2022-07-18T05:55:30;16.00;99.90
55213;DHT22;41083;52.932;6.674;2022-07-18T05:57:56;16.10;99.90
55213;DHT22;41083;52.932;6.674;2022-07-18T06:00:22;16.20;99.90
55213;DHT22;41083;52.932;6.674;2022-07-18T06:02:48;16.30;99.90
55213;DHT22;41083;52.932;6.674;2022-07-18T06:05:14;16.30;99.90
55213;DHT22;41083;52.932;6.674;2022-07-18T06:07:40;16.40;99.90
55213;DHT22;41083;52.932;6.674;2022-07-18T06:10:06;16.50;99.90
55213;DHT22;41083;52.932;6.674;2022-07-18T06:12:32;16.50;99.90
55213;DHT22;41083;52.932;6.674;2022-07-18T06:14:59;16.60;99.90
55213;DHT22;41083;52.932;6.674;2022-07-18T06:17:25;16.70;99.90
55213;DHT22;41083;52.932;6.674;2022-07-18T06:19:51;16.80;99.90
55213;DHT22;41083;52.932;6.674;2022-07-18T06:22:17;16.80;99.90
55213;DHT22;41083;52.932;6.674;2022-07-18T06:24:42;16.80;99.90
55213;DHT22;41083;52.932;6.674;2022-07-18T06:27:08;16.90;99.90
55213;DHT22;41083;52.932;6.674;2022-07-18T06:29:34;17.10;99.90
55213;DHT22;41083;52.932;6.674;2022-07-18T06:31:59;17.10;99.90
55213;DHT22;41083;52.932;6.674;2022-07-18T06:34:25;17.30;99.90
55213;DHT22;41083;52.932;6.674;2022-07-18T06:36:50;17.30;99.90
55213;DHT22;41083;52.932;6.674;2022-07-18T06:39:16;17.40;99.90
55213;DHT22;41083;52.932;6.674;2022-07-18T06:41:44;17.60;99.90
55213;DHT22;41083;52.932;6.674;2022-07-18T06:44:10;17.70;99.90
55213;DHT22;41083;52.932;6.674;2022-07-18T06:46:36;17.70;99.90
55213;DHT22;41083;52.932;6.674;2022-07-18T06:49:02;17.80;99.90
55213;DHT22;41083;52.932;6.674;2022-07-18T06:51:28;18.10;99.90
55213;DHT22;41083;52.932;6.674;2022-07-18T06:53:54;18.70;99.90
55213;DHT22;41083;52.932;6.674;2022-07-18T06:56:20;19.50;98.40
55213;DHT22;41083;52.932;6.674;2022-07-18T06:58:46;20.30;96.40
55213;DHT22;41083;52.932;6.674;2022-07-18T07:01:16;21.00;94.20
55213;DHT22;41083;52.932;6.674;2022-07-18T07:03:41;21.10;93.50
55213;DHT22;41083;52.932;6.674;2022-07-18T07:06:07;20.90;93.40
55213;DHT22;41083;52.932;6.674;2022-07-18T07:08:32;20.70;93.80
55213;DHT22;41083;52.932;6.674;2022-07-18T07:10:59;20.50;94.40
55213;DHT22;41083;52.932;6.674;2022-07-18T07:13:25;20.30;94.70
55213;DHT22;41083;52.932;6.674;2022-07-18T07:15:51;20.20;94.80
55213;DHT22;41083;52.932;6.674;2022-07-18T07:18:16;20.10;95.00
55213;DHT22;41083;52.932;6.674;2022-07-18T07:20:42;20.00;95.30
55213;DHT22;41083;52.932;6.674;2022-07-18T07:23:07;19.90;95.40
55213;DHT22;41083;52.932;6.674;2022-07-18T07:25:35;19.90;95.40
55213;DHT22;41083;52.932;6.674;2022-07-18T07:28:01;19.90;95.60
55213;DHT22;41083;52.932;6.674;2022-07-18T07:30:27;19.90;95.40
55213;DHT22;41083;52.932;6.674;2022-07-18T07:32:52;19.90;95.30
55213;DHT22;41083;52.932;6.674;2022-07-18T07:35:19;19.90;94.90
55213;DHT22;41083;52.932;6.674;2022-07-18T07:37:48;19.90;94.50
55213;DHT22;41083;52.932;6.674;2022-07-18T07:40:14;19.90;94.50
55213;DHT22;41083;52.932;6.674;2022-07-18T07:42:40;19.90;94.60
55213;DHT22;41083;52.932;6.674;2022-07-18T07:45:08;19.90;94.70
55213;DHT22;41083;52.932;6.674;2022-07-18T07:47:35;19.90;94.80
55213;DHT22;41083;52.932;6.674;2022-07-18T07:50:01;20.10;94.70
55213;DHT22;41083;52.932;6.674;2022-07-18T07:52:27;20.10;94.60
55213;DHT22;41083;52.932;6.674;2022-07-18T07:54:54;20.20;94.40
55213;DHT22;41083;52.932;6.674;2022-07-18T07:57:19;20.40;94.10
55213;DHT22;41083;52.932;6.674;2022-07-18T07:59:45;20.50;93.70
55213;DHT22;41083;52.932;6.674;2022-07-18T08:02:11;20.60;93.50
55213;DHT22;41083;52.932;6.674;2022-07-18T08:04:36;20.60;93.50
55213;DHT22;41083;52.932;6.674;2022-07-18T08:07:02;20.70;93.50
55213;DHT22;41083;52.932;6.674;2022-07-18T08:09:28;20.70;93.40
55213;DHT22;41083;52.932;6.674;2022-07-18T08:11:53;20.70;93.40
55213;DHT22;41083;52.932;6.674;2022-07-18T08:14:19;20.70;93.20
55213;DHT22;41083;52.932;6.674;2022-07-18T08:16:45;20.60;93.20
55213;DHT22;41083;52.932;6.674;2022-07-18T08:19:10;20.60;93.20
55213;DHT22;41083;52.932;6.674;2022-07-18T08:21:36;20.60;93.30
55213;DHT22;41083;52.932;6.674;2022-07-18T08:24:02;20.70;93.30
55213;DHT22;41083;52.932;6.674;2022-07-18T08:26:27;20.90;93.10
55213;DHT22;41083;52.932;6.674;2022-07-18T08:28:53;21.00;93.10
55213;DHT22;41083;52.932;6.674;2022-07-18T08:31:19;21.00;93.10
55213;DHT22;41083;52.932;6.674;2022-07-18T08:33:45;21.00;92.90
55213;DHT22;41083;52.932;6.674;2022-07-18T08:36:11;21.10;92.90
55213;DHT22;41083;52.932;6.674;2022-07-18T08:38:36;21.20;92.50
55213;DHT22;41083;52.932;6.674;2022-07-18T08:41:03;21.40;92.00
55213;DHT22;41083;52.932;6.674;2022-07-18T08:43:28;21.40;91.50
55213;DHT22;41083;52.932;6.674;2022-07-18T08:45:57;21.50;91.60
55213;DHT22;41083;52.932;6.674;2022-07-18T08:48:26;21.60;91.10
55213;DHT22;41083;52.932;6.674;2022-07-18T08:50:52;21.70;90.80
55213;DHT22;41083;52.932;6.674;2022-07-18T08:53:19;21.80;90.20
55213;DHT22;41083;52.932;6.674;2022-07-18T08:55:45;21.70;89.10
55213;DHT22;41083;52.932;6.674;2022-07-18T08:58:11;21.80;89.10
55213;DHT22;41083;52.932;6.674;2022-07-18T09:00:39;21.90;88.90
55213;DHT22;41083;52.932;6.674;2022-07-18T09:03:05;22.00;88.80
55213;DHT22;41083;52.932;6.674;2022-07-18T09:05:32;22.10;88.30
55213;DHT22;41083;52.932;6.674;2022-07-18T09:08:11;22.20;88.20
55213;DHT22;41083;52.932;6.674;2022-07-18T09:10:58;22.30;86.70
55213;DHT22;41083;52.932;6.674;2022-07-18T09:13:29;22.40;83.70
55213;DHT22;41083;52.932;6.674;2022-07-18T09:18:38;22.40;87.00
55213;DHT22;41083;52.932;6.674;2022-07-18T09:21:15;22.30;85.80
55213;DHT22;41083;52.932;6.674;2022-07-18T09:23:45;22.40;86.70
55213;DHT22;41083;52.932;6.674;2022-07-18T09:26:11;22.30;87.90
55213;DHT22;41083;52.932;6.674;2022-07-18T09:31:23;22.40;86.30
55213;DHT22;41083;52.932;6.674;2022-07-18T09:34:00;22.40;81.40
55213;DHT22;41083;52.932;6.674;2022-07-18T09:36:26;22.40;87.20
55213;DHT22;41083;52.932;6.674;2022-07-18T09:38:53;22.60;87.20
55213;DHT22;41083;52.932;6.674;2022-07-18T09:41:27;22.60;86.60
55213;DHT22;41083;52.932;6.674;2022-07-18T09:43:53;22.80;85.00
55213;DHT22;41083;52.932;6.674;2022-07-18T09:46:19;22.80;85.80
55213;DHT22;41083;52.932;6.674;2022-07-18T09:48:45;22.80;84.70
55213;DHT22;41083;52.932;6.674;2022-07-18T09:51:10;22.80;84.50
55213;DHT22;41083;52.932;6.674;2022-07-18T09:53:38;22.80;83.70
55213;DHT22;41083;52.932;6.674;2022-07-18T09:56:06;22.90;83.10
55213;DHT22;41083;52.932;6.674;2022-07-18T09:58:36;23.10;82.00
55213;DHT22;41083;52.932;6.674;2022-07-18T10:01:03;23.20;80.80
55213;DHT22;41083;52.932;6.674;2022-07-18T10:03:29;23.30;79.70
55213;DHT22;41083;52.932;6.674;2022-07-18T10:05:56;23.30;78.80
55213;DHT22;41083;52.932;6.674;2022-07-18T10:08:25;23.30;78.50
55213;DHT22;41083;52.932;6.674;2022-07-18T10:10:52;23.30;77.80
55213;DHT22;41083;52.932;6.674;2022-07-18T10:13:20;23.30;76.50
55213;DHT22;41083;52.932;6.674;2022-07-18T10:15:47;23.30;76.80
55213;DHT22;41083;52.932;6.674;2022-07-18T10:18:15;23.40;76.20
55213;DHT22;41083;52.932;6.674;2022-07-18T10:23:17;23.50;73.80
55213;DHT22;41083;52.932;6.674;2022-07-18T10:25:44;23.60;73.90
55213;DHT22;41083;52.932;6.674;2022-07-18T10:28:12;23.60;73.70
55213;DHT22;41083;52.932;6.674;2022-07-18T10:30:43;23.70;73.30
55213;DHT22;41083;52.932;6.674;2022-07-18T10:33:35;23.70;72.90
55213;DHT22;41083;52.932;6.674;2022-07-18T10:36:05;23.60;70.70
55213;DHT22;41083;52.932;6.674;2022-07-18T10:38:30;23.60;73.80
55213;DHT22;41083;52.932;6.674;2022-07-18T10:41:08;23.70;73.70
55213;DHT22;41083;52.932;6.674;2022-07-18T10:43:37;23.70;72.30
55213;DHT22;41083;52.932;6.674;2022-07-18T10:46:04;23.70;73.30
55213;DHT22;41083;52.932;6.674;2022-07-18T10:51:27;23.90;70.80
55213;DHT22;41083;52.932;6.674;2022-07-18T10:58:55;24.00;70.10
55213;DHT22;41083;52.932;6.674;2022-07-18T11:01:23;24.10;70.50
55213;DHT22;41083;52.932;6.674;2022-07-18T11:03:49;24.10;70.50
55213;DHT22;41083;52.932;6.674;2022-07-18T11:06:15;24.10;70.90
55213;DHT22;41083;52.932;6.674;2022-07-18T11:08:41;24.10;69.00
55213;DHT22;41083;52.932;6.674;2022-07-18T11:11:09;24.20;67.50
55213;DHT22;41083;52.932;6.674;2022-07-18T11:13:37;24.30;67.00
55213;DHT22;41083;52.932;6.674;2022-07-18T11:21:23;24.50;63.70
55213;DHT22;41083;52.932;6.674;2022-07-18T11:24:03;24.50;62.50
55213;DHT22;41083;52.932;6.674;2022-07-18T11:26:30;24.50;63.20
55213;DHT22;41083;52.932;6.674;2022-07-18T11:31:23;24.60;62.80
55213;DHT22;41083;52.932;6.674;2022-07-18T11:33:49;24.60;62.80
55213;DHT22;41083;52.932;6.674;2022-07-18T11:36:20;24.60;63.30
55213;DHT22;41083;52.932;6.674;2022-07-18T11:41:17;24.70;61.80
55213;DHT22;41083;52.932;6.674;2022-07-18T11:43:48;24.80;61.50
55213;DHT22;41083;52.932;6.674;2022-07-18T11:46:16;24.80;60.50
55213;DHT22;41083;52.932;6.674;2022-07-18T11:48:44;24.80;60.80
55213;DHT22;41083;52.932;6.674;2022-07-18T11:51:15;24.80;60.30
55213;DHT22;41083;52.932;6.674;2022-07-18T11:53:53;24.80;59.80
55213;DHT22;41083;52.932;6.674;2022-07-18T11:56:21;24.80;59.20
55213;DHT22;41083;52.932;6.674;2022-07-18T11:58:48;24.80;60.30
55213;DHT22;41083;52.932;6.674;2022-07-18T12:01:14;24.70;60.30
55213;DHT22;41083;52.932;6.674;2022-07-18T12:03:42;24.60;60.70
55213;DHT22;41083;52.932;6.674;2022-07-18T12:06:23;24.60;60.30
55213;DHT22;41083;52.932;6.674;2022-07-18T12:08:53;24.60;59.70
55213;DHT22;41083;52.932;6.674;2022-07-18T12:11:30;24.60;60.20
55213;DHT22;41083;52.932;6.674;2022-07-18T12:13:58;24.60;58.60
55213;DHT22;41083;52.932;6.674;2022-07-18T12:16:35;24.60;56.60
55213;DHT22;41083;52.932;6.674;2022-07-18T12:21:54;24.50;60.70
55213;DHT22;41083;52.932;6.674;2022-07-18T12:24:28;24.50;61.40
55213;DHT22;41083;52.932;6.674;2022-07-18T12:27:14;24.50;62.80
55213;DHT22;41083;52.932;6.674;2022-07-18T12:32:29;24.50;62.00
55213;DHT22;41083;52.932;6.674;2022-07-18T12:35:10;24.60;63.00
55213;DHT22;41083;52.932;6.674;2022-07-18T12:37:36;24.60;60.90
55213;DHT22;41083;52.932;6.674;2022-07-18T12:40:08;24.80;61.90
55213;DHT22;41083;52.932;6.674;2022-07-18T12:42:41;24.80;60.60
55213;DHT22;41083;52.932;6.674;2022-07-18T12:45:11;24.80;60.20
55213;DHT22;41083;52.932;6.674;2022-07-18T12:47:37;24.80;60.60
55213;DHT22;41083;52.932;6.674;2022-07-18T12:50:05;24.90;60.80
55213;DHT22;41083;52.932;6.674;2022-07-18T12:52:30;24.90;59.90
55213;DHT22;41083;52.932;6.674;2022-07-18T12:54:56;25.00;59.10
55213;DHT22;41083;52.932;6.674;2022-07-18T12:57:22;25.10;58.70
55213;DHT22;41083;52.932;6.674;2022-07-18T12:59:48;25.20;58.40
55213;DHT22;41083;52.932;6.674;2022-07-18T13:02:14;25.20;57.60
55213;DHT22;41083;52.932;6.674;2022-07-18T13:04:41;25.30;57.60
55213;DHT22;41083;52.932;6.674;2022-07-18T13:07:06;25.30;58.00
55213;DHT22;41083;52.932;6.674;2022-07-18T13:09:32;25.30;57.80
55213;DHT22;41083;52.932;6.674;2022-07-18T13:11:59;25.30;57.30
55213;DHT22;41083;52.932;6.674;2022-07-18T13:14:25;25.40;57.40
55213;DHT22;41083;52.932;6.674;2022-07-18T13:16:51;25.30;57.20
55213;DHT22;41083;52.932;6.674;2022-07-18T13:19:18;25.30;57.00
55213;DHT22;41083;52.932;6.674;2022-07-18T13:21:45;25.40;57.10
55213;DHT22;41083;52.932;6.674;2022-07-18T13:24:12;25.40;57.20
55213;DHT22;41083;52.932;6.674;2022-07-18T13:26:38;25.40;57.00
55213;DHT22;41083;52.932;6.674;2022-07-18T13:29:04;25.50;57.10
55213;DHT22;41083;52.932;6.674;2022-07-18T13:31:30;25.60;56.40
55213;DHT22;41083;52.932;6.674;2022-07-18T13:33:56;25.60;56.10
55213;DHT22;41083;52.932;6.674;2022-07-18T13:36:22;25.60;56.10
55213;DHT22;41083;52.932;6.674;2022-07-18T13:38:48;25.50;56.00
55213;DHT22;41083;52.932;6.674;2022-07-18T13:41:13;25.30;55.90
55213;DHT22;41083;52.932;6.674;2022-07-18T13:43:39;25.30;56.40
55213;DHT22;41083;52.932;6.674;2022-07-18T13:46:06;25.30;56.50
55213;DHT22;41083;52.932;6.674;2022-07-18T13:48:32;25.30;56.90
55213;DHT22;41083;52.932;6.674;2022-07-18T13:50:58;25.40;57.20
55213;DHT22;41083;52.932;6.674;2022-07-18T13:53:25;25.50;57.40
55213;DHT22;41083;52.932;6.674;2022-07-18T13:55:50;25.60;57.00
55213;DHT22;41083;52.932;6.674;2022-07-18T13:58:16;25.70;56.70
55213;DHT22;41083;52.932;6.674;2022-07-18T14:00:43;25.70;56.10
55213;DHT22;41083;52.932;6.674;2022-07-18T14:03:09;25.90;55.50
55213;DHT22;41083;52.932;6.674;2022-07-18T14:05:35;26.00;55.10
55213;DHT22;41083;52.932;6.674;2022-07-18T14:08:01;26.00;54.70
55213;DHT22;41083;52.932;6.674;2022-07-18T14:10:27;26.10;55.10
55213;DHT22;41083;52.932;6.674;2022-07-18T14:12:53;26.10;55.10
55213;DHT22;41083;52.932;6.674;2022-07-18T14:15:18;26.10;54.90
55213;DHT22;41083;52.932;6.674;2022-07-18T14:17:44;26.10;54.50
55213;DHT22;41083;52.932;6.674;2022-07-18T14:20:11;26.10;53.90
55213;DHT22;41083;52.932;6.674;2022-07-18T14:22:38;26.20;53.80
55213;DHT22;41083;52.932;6.674;2022-07-18T14:25:05;26.20;53.60
55213;DHT22;41083;52.932;6.674;2022-07-18T14:27:32;26.30;53.40
55213;DHT22;41083;52.932;6.674;2022-07-18T14:29:57;26.30;52.90
55213;DHT22;41083;52.932;6.674;2022-07-18T14:32:25;26.30;53.00
55213;DHT22;41083;52.932;6.674;2022-07-18T14:34:51;26.30;53.30
55213;DHT22;41083;52.932;6.674;2022-07-18T14:37:16;26.30;53.30
55213;DHT22;41083;52.932;6.674;2022-07-18T14:39:42;26.50;53.30
55213;DHT22;41083;52.932;6.674;2022-07-18T14:42:08;26.50;52.80
55213;DHT22;41083;52.932;6.674;2022-07-18T14:44:33;26.70;52.80
55213;DHT22;41083;52.932;6.674;2022-07-18T14:46:59;26.70;53.10
55213;DHT22;41083;52.932;6.674;2022-07-18T14:49:26;26.70;53.30
55213;DHT22;41083;52.932;6.674;2022-07-18T14:51:51;26.70;53.30
55213;DHT22;41083;52.932;6.674;2022-07-18T14:54:17;26.70;53.30
55213;DHT22;41083;52.932;6.674;2022-07-18T14:56:43;26.70;53.30
55213;DHT22;41083;52.932;6.674;2022-07-18T14:59:08;26.70;53.40
55213;DHT22;41083;52.932;6.674;2022-07-18T15:01:34;26.70;52.90
55213;DHT22;41083;52.932;6.674;2022-07-18T15:04:00;26.70;53.40
55213;DHT22;41083;52.932;6.674;2022-07-18T15:06:26;26.60;53.40
55213;DHT22;41083;52.932;6.674;2022-07-18T15:08:51;26.70;53.40
55213;DHT22;41083;52.932;6.674;2022-07-18T15:11:17;26.60;53.20
55213;DHT22;41083;52.932;6.674;2022-07-18T15:13:47;26.60;52.80
55213;DHT22;41083;52.932;6.674;2022-07-18T15:16:13;26.60;52.50
55213;DHT22;41083;52.932;6.674;2022-07-18T15:18:39;26.60;52.80
55213;DHT22;41083;52.932;6.674;2022-07-18T15:21:04;26.70;52.30
55213;DHT22;41083;52.932;6.674;2022-07-18T15:23:30;26.70;51.60
55213;DHT22;41083;52.932;6.674;2022-07-18T15:25:56;26.70;51.50
55213;DHT22;41083;52.932;6.674;2022-07-18T15:28:21;26.70;51.50
55213;DHT22;41083;52.932;6.674;2022-07-18T15:30:48;26.70;51.50
55213;DHT22;41083;52.932;6.674;2022-07-18T15:33:15;26.70;51.50
55213;DHT22;41083;52.932;6.674;2022-07-18T15:35:41;26.80;51.60
55213;DHT22;41083;52.932;6.674;2022-07-18T15:38:06;26.90;51.20
55213;DHT22;41083;52.932;6.674;2022-07-18T15:40:32;27.00;51.10
55213;DHT22;41083;52.932;6.674;2022-07-18T15:42:57;27.00;50.80
55213;DHT22;41083;52.932;6.674;2022-07-18T15:45:23;27.00;50.90
55213;DHT22;41083;52.932;6.674;2022-07-18T15:47:49;27.00;51.00
55213;DHT22;41083;52.932;6.674;2022-07-18T15:50:15;26.90;51.10
55213;DHT22;41083;52.932;6.674;2022-07-18T15:52:41;26.90;51.30
55213;DHT22;41083;52.932;6.674;2022-07-18T15:55:07;26.90;51.40
55213;DHT22;41083;52.932;6.674;2022-07-18T15:57:33;26.80;51.30
55213;DHT22;41083;52.932;6.674;2022-07-18T15:59:59;26.80;51.20